LFMULFMT

Guest
Details From LFMU - Béziers Vias
To LFMT - Montpellier/mediterranee
Flight Number -
Tags Generated
Created
Modified
Stats Distance 31 nm / 57 km
Max Altitude 0 ft / 0 m
Waypoints 2
Social Downloads 0
Likes 0
Share VATSIM

Download

Looking for another format? Having issues loading an existing format? Contact us
Advertisement - Login to hide

Notes

Generated

Route

LFMU LFMT

ID Type Via Altitude Latitude Longitude Leg Dist Tot Dist Heading (true) Name
O LFMU APT - 0 ft / 0 m 43.32402˚ 3.34239˚ - 0 nm - -
O LFMT APT - 0 ft / 0 m 43.57586˚ 3.95193˚ 30 nm 30 nm 60° / 61° -

Altitude Profile

Advertisement - Login to hide

LFMU

Details ICAO LFMU (BZR)
Name Beziers Vias
Region France
Timezone Europe/Paris (UTC+2.0)
Stats Elevation 54 ft / 16 m (AMSL)
Location 43.323422° 3.353573°
Runways 1
Magnetic Variation 1.151° E

METAR

LFMU 250930Z AUTO 08008KT 040V120 9999 FEW021 22/15 Q1017 TEMPO BKN010

Decode

TAF

TAF LFMU 250800Z 2509/2609 15005KT 9999 BKN010 BECMG 2511/2513 CAVOK BECMG 2520/2522 VRB02KT PROB40 TEMPO 2603/2607 4000 -SHRA BR BKN004 BKN100 BECMG 2607/2609 12012KT NSC

Decode

Departure Runways

ID Width Length Bearing (true) Bearing (mag) Surface Threshold Offset Overrun Length
10 115 ft / 35 m 5,955 ft / 1,815 m 94.20° 93.05° Asphalt 459 ft / 140 m 0 ft / 0 m
28 115 ft / 35 m 5,955 ft / 1,815 m 274.22° 273.07° Asphalt 0 ft / 0 m 0 ft / 0 m

LFMT

Details ICAO LFMT (MPL)
Name Montpellier/Mediterranee
Region France
Timezone Europe/Paris (UTC+2.0)
Stats Elevation 16 ft / 5 m (AMSL)
Location 43.576262° 3.963261°
Runways 2
Magnetic Variation 1.299° E

METAR

LFMT 250930Z AUTO 16003KT 110V210 CAVOK 22/14 Q1017 NOSIG

Decode

TAF

TAF LFMT 250800Z 2509/2609 18006KT CAVOK BECMG 2521/2523 VRB02KT PROB30 TEMPO 2604/2607 02012KT -SHRA BKN005 BKN100

Decode

Destination Runways

ID Width Length Bearing (true) Bearing (mag) Surface Threshold Offset Overrun Length
13L 164 ft / 50 m 8,525 ft / 2,598 m 124.78° 123.48° Asphalt 0 ft / 0 m 0 ft / 0 m
13R 98 ft / 30 m 3,611 ft / 1,101 m 124.80° 123.50° Asphalt 328 ft / 100 m 0 ft / 0 m
31L 98 ft / 30 m 3,611 ft / 1,101 m 304.81° 303.51° Asphalt 0 ft / 0 m 0 ft / 0 m
31R 164 ft / 50 m 8,525 ft / 2,598 m 304.80° 303.50° Asphalt 0 ft / 0 m 0 ft / 0 m

Approach Navaids

Runway Type Ident Frequency Range Bearing (true) Bearing (mag) Slope Elevation
31R Localiser FG 108.55 MHz 27 nm / 50 km 304.75° 303.45° - 16 ft / 5 m (AMSL)
31R Glidescope FG 108.55 MHz 27 nm / 50 km 304.75° 303.45° 3.00° 16 ft / 5 m (AMSL)
31R DME FG 108.55 MHz 27 nm / 50 km - - - 16 ft / 5 m (AMSL)

Popular Alternatives